sensor_id;sensor_type;location;lat;lon;timestamp;P1;durP1;ratioP1;P2;durP2;ratioP2
41677;SDS011;27364;49.026;8.712;2022-10-29T18:26:32;20.25;;;9.40;;
41677;SDS011;27364;49.026;8.712;2022-10-29T18:29:04;15.88;;;8.98;;
41677;SDS011;27364;49.026;8.712;2022-10-29T18:31:32;17.25;;;9.07;;
41677;SDS011;27364;49.026;8.712;2022-10-29T18:33:59;17.05;;;9.80;;
41677;SDS011;27364;49.026;8.712;2022-10-29T18:36:31;14.68;;;9.32;;
41677;SDS011;27364;49.026;8.712;2022-10-29T18:38:58;17.75;;;9.70;;
41677;SDS011;27364;49.026;8.712;2022-10-29T18:41:24;17.05;;;9.23;;
41677;SDS011;27364;49.026;8.712;2022-10-29T18:43:50;17.50;;;9.13;;
41677;SDS011;27364;49.026;8.712;2022-10-29T18:46:17;17.40;;;9.18;;
41677;SDS011;27364;49.026;8.712;2022-10-29T18:48:43;26.77;;;9.77;;
41677;SDS011;27364;49.026;8.712;2022-10-29T18:51:14;21.58;;;10.05;;
41677;SDS011;27364;49.026;8.712;2022-10-29T18:53:43;19.55;;;10.73;;
41677;SDS011;27364;49.026;8.712;2022-10-29T18:56:10;16.43;;;10.30;;
41677;SDS011;27364;49.026;8.712;2022-10-29T18:58:37;15.95;;;9.77;;
41677;SDS011;27364;49.026;8.712;2022-10-29T19:01:06;20.45;;;10.30;;
41677;SDS011;27364;49.026;8.712;2022-10-29T19:03:32;25.70;;;13.63;;
41677;SDS011;27364;49.026;8.712;2022-10-29T19:05:59;19.48;;;11.93;;
41677;SDS011;27364;49.026;8.712;2022-10-29T19:08:26;21.67;;;12.68;;
41677;SDS011;27364;49.026;8.712;2022-10-29T19:10:52;22.70;;;13.10;;
41677;SDS011;27364;49.026;8.712;2022-10-29T19:13:18;22.00;;;11.85;;
41677;SDS011;27364;49.026;8.712;2022-10-29T19:15:44;22.63;;;12.52;;
41677;SDS011;27364;49.026;8.712;2022-10-29T19:18:10;26.67;;;16.30;;
41677;SDS011;27364;49.026;8.712;2022-10-29T19:20:35;27.73;;;14.80;;
41677;SDS011;27364;49.026;8.712;2022-10-29T19:23:02;24.55;;;12.93;;
41677;SDS011;27364;49.026;8.712;2022-10-29T19:25:27;23.73;;;13.02;;
41677;SDS011;27364;49.026;8.712;2022-10-29T19:27:53;18.02;;;11.20;;
41677;SDS011;27364;49.026;8.712;2022-10-29T19:30:18;20.83;;;12.07;;
41677;SDS011;27364;49.026;8.712;2022-10-29T19:32:44;21.23;;;11.35;;
41677;SDS011;27364;49.026;8.712;2022-10-29T19:35:10;19.35;;;11.30;;
41677;SDS011;27364;49.026;8.712;2022-10-29T19:37:36;19.00;;;11.30;;
41677;SDS011;27364;49.026;8.712;2022-10-29T19:40:01;20.35;;;11.52;;
41677;SDS011;27364;49.026;8.712;2022-10-29T19:42:27;22.13;;;11.63;;
41677;SDS011;27364;49.026;8.712;2022-10-29T19:44:54;19.00;;;10.93;;
41677;SDS011;27364;49.026;8.712;2022-10-29T19:47:19;19.48;;;11.60;;
41677;SDS011;27364;49.026;8.712;2022-10-29T19:49:45;20.42;;;11.90;;
41677;SDS011;27364;49.026;8.712;2022-10-29T19:52:10;20.75;;;11.73;;
41677;SDS011;27364;49.026;8.712;2022-10-29T19:54:36;21.35;;;12.52;;
41677;SDS011;27364;49.026;8.712;2022-10-29T19:57:01;18.90;;;11.80;;
41677;SDS011;27364;49.026;8.712;2022-10-29T19:59:27;22.25;;;11.45;;
41677;SDS011;27364;49.026;8.712;2022-10-29T20:01:53;20.83;;;11.13;;
41677;SDS011;27364;49.026;8.712;2022-10-29T20:04:20;18.38;;;11.75;;
41677;SDS011;27364;49.026;8.712;2022-10-29T20:06:46;20.58;;;10.77;;
41677;SDS011;27364;49.026;8.712;2022-10-29T20:09:13;19.73;;;11.73;;
41677;SDS011;27364;49.026;8.712;2022-10-29T20:11:40;20.48;;;11.35;;
41677;SDS011;27364;49.026;8.712;2022-10-29T20:14:05;19.50;;;11.25;;
41677;SDS011;27364;49.026;8.712;2022-10-29T20:16:35;19.80;;;10.82;;
41677;SDS011;27364;49.026;8.712;2022-10-29T20:19:02;21.13;;;12.13;;
41677;SDS011;27364;49.026;8.712;2022-10-29T20:21:32;26.63;;;12.75;;
41677;SDS011;27364;49.026;8.712;2022-10-29T20:23:58;21.00;;;11.65;;
41677;SDS011;27364;49.026;8.712;2022-10-29T20:26:26;24.00;;;12.20;;
41677;SDS011;27364;49.026;8.712;2022-10-29T20:28:53;16.83;;;12.20;;
41677;SDS011;27364;49.026;8.712;2022-10-29T20:31:25;20.33;;;11.27;;
41677;SDS011;27364;49.026;8.712;2022-10-29T20:33:53;19.75;;;12.63;;
41677;SDS011;27364;49.026;8.712;2022-10-29T20:36:20;20.77;;;13.73;;
41677;SDS011;27364;49.026;8.712;2022-10-29T20:38:48;23.70;;;11.50;;
41677;SDS011;27364;49.026;8.712;2022-10-29T20:41:20;21.13;;;12.05;;
41677;SDS011;27364;49.026;8.712;2022-10-29T20:43:55;22.42;;;12.20;;
41677;SDS011;27364;49.026;8.712;2022-10-29T20:46:22;21.52;;;11.10;;
41677;SDS011;27364;49.026;8.712;2022-10-29T20:48:50;19.48;;;11.05;;
41677;SDS011;27364;49.026;8.712;2022-10-29T20:51:15;17.02;;;9.88;;
41677;SDS011;27364;49.026;8.712;2022-10-29T20:53:41;15.98;;;9.98;;
41677;SDS011;27364;49.026;8.712;2022-10-29T20:56:07;22.98;;;10.18;;
41677;SDS011;27364;49.026;8.712;2022-10-29T20:58:34;17.95;;;9.85;;
41677;SDS011;27364;49.026;8.712;2022-10-29T21:01:07;23.27;;;10.65;;
41677;SDS011;27364;49.026;8.712;2022-10-29T21:03:36;20.65;;;11.15;;
41677;SDS011;27364;49.026;8.712;2022-10-29T21:06:04;22.23;;;11.25;;
41677;SDS011;27364;49.026;8.712;2022-10-29T21:08:31;22.25;;;11.43;;
41677;SDS011;27364;49.026;8.712;2022-10-29T21:11:07;19.90;;;12.23;;
41677;SDS011;27364;49.026;8.712;2022-10-29T21:13:35;25.08;;;13.00;;
41677;SDS011;27364;49.026;8.712;2022-10-29T21:16:06;23.67;;;13.18;;
41677;SDS011;27364;49.026;8.712;2022-10-29T21:18:39;20.23;;;12.73;;
41677;SDS011;27364;49.026;8.712;2022-10-29T21:21:07;21.67;;;12.60;;
41677;SDS011;27364;49.026;8.712;2022-10-29T21:23:35;22.63;;;12.48;;
41677;SDS011;27364;49.026;8.712;2022-10-29T21:26:05;19.30;;;11.10;;
41677;SDS011;27364;49.026;8.712;2022-10-29T21:28:32;25.27;;;11.95;;
41677;SDS011;27364;49.026;8.712;2022-10-29T21:30:58;22.38;;;11.80;;
41677;SDS011;27364;49.026;8.712;2022-10-29T21:33:24;22.48;;;12.23;;
41677;SDS011;27364;49.026;8.712;2022-10-29T21:35:50;21.92;;;11.82;;
41677;SDS011;27364;49.026;8.712;2022-10-29T21:38:18;18.88;;;11.63;;
41677;SDS011;27364;49.026;8.712;2022-10-29T21:40:45;19.15;;;11.10;;
41677;SDS011;27364;49.026;8.712;2022-10-29T21:43:11;18.83;;;10.88;;
41677;SDS011;27364;49.026;8.712;2022-10-29T21:45:40;19.00;;;10.45;;
41677;SDS011;27364;49.026;8.712;2022-10-29T21:48:06;22.70;;;10.82;;
41677;SDS011;27364;49.026;8.712;2022-10-29T21:50:33;19.80;;;11.20;;
41677;SDS011;27364;49.026;8.712;2022-10-29T21:52:59;19.83;;;10.13;;
41677;SDS011;27364;49.026;8.712;2022-10-29T21:55:25;17.80;;;10.32;;
41677;SDS011;27364;49.026;8.712;2022-10-29T21:57:51;22.80;;;11.05;;
41677;SDS011;27364;49.026;8.712;2022-10-29T22:00:17;25.50;;;11.15;;
41677;SDS011;27364;49.026;8.712;2022-10-29T22:02:44;19.42;;;11.13;;
41677;SDS011;27364;49.026;8.712;2022-10-29T22:05:12;21.35;;;11.25;;
41677;SDS011;27364;49.026;8.712;2022-10-29T22:07:37;22.05;;;11.10;;
41677;SDS011;27364;49.026;8.712;2022-10-29T22:10:03;21.65;;;11.35;;
41677;SDS011;27364;49.026;8.712;2022-10-29T22:12:32;19.10;;;10.68;;
41677;SDS011;27364;49.026;8.712;2022-10-29T22:14:59;21.40;;;11.73;;
41677;SDS011;27364;49.026;8.712;2022-10-29T22:17:26;19.95;;;11.52;;
41677;SDS011;27364;49.026;8.712;2022-10-29T22:19:53;20.48;;;10.80;;
41677;SDS011;27364;49.026;8.712;2022-10-29T22:22:19;19.92;;;10.50;;
41677;SDS011;27364;49.026;8.712;2022-10-29T22:24:44;23.35;;;10.88;;
41677;SDS011;27364;49.026;8.712;2022-10-29T22:27:12;20.45;;;10.35;;
41677;SDS011;27364;49.026;8.712;2022-10-29T22:29:37;18.85;;;9.98;;
41677;SDS011;27364;49.026;8.712;2022-10-29T22:32:03;20.00;;;10.68;;
41677;SDS011;27364;49.026;8.712;2022-10-29T22:34:29;19.52;;;9.88;;
41677;SDS011;27364;49.026;8.712;2022-10-29T22:36:55;20.40;;;9.63;;
41677;SDS011;27364;49.026;8.712;2022-10-29T22:39:21;17.65;;;9.60;;
41677;SDS011;27364;49.026;8.712;2022-10-29T22:41:46;18.38;;;8.98;;
41677;SDS011;27364;49.026;8.712;2022-10-29T22:44:12;18.27;;;9.82;;
41677;SDS011;27364;49.026;8.712;2022-10-29T22:46:38;18.13;;;9.40;;
41677;SDS011;27364;49.026;8.712;2022-10-29T22:49:05;22.15;;;9.73;;
41677;SDS011;27364;49.026;8.712;2022-10-29T22:51:31;20.88;;;9.52;;
41677;SDS011;27364;49.026;8.712;2022-10-29T22:53:57;16.48;;;9.35;;
41677;SDS011;27364;49.026;8.712;2022-10-29T22:56:27;15.88;;;9.40;;
41677;SDS011;27364;49.026;8.712;2022-10-29T22:58:54;22.98;;;9.77;;
41677;SDS011;27364;49.026;8.712;2022-10-29T23:01:26;20.00;;;10.02;;
41677;SDS011;27364;49.026;8.712;2022-10-29T23:03:54;19.95;;;9.93;;
41677;SDS011;27364;49.026;8.712;2022-10-29T23:06:21;19.10;;;10.23;;
41677;SDS011;27364;49.026;8.712;2022-10-29T23:08:49;18.15;;;9.70;;
41677;SDS011;27364;49.026;8.712;2022-10-29T23:11:19;19.88;;;10.13;;
41677;SDS011;27364;49.026;8.712;2022-10-29T23:13:54;16.77;;;9.98;;
41677;SDS011;27364;49.026;8.712;2022-10-29T23:16:23;17.38;;;9.73;;
41677;SDS011;27364;49.026;8.712;2022-10-29T23:18:51;16.42;;;10.32;;
41677;SDS011;27364;49.026;8.712;2022-10-29T23:21:18;22.38;;;11.00;;
41677;SDS011;27364;49.026;8.712;2022-10-29T23:23:43;16.58;;;10.52;;
41677;SDS011;27364;49.026;8.712;2022-10-29T23:26:10;15.68;;;9.30;;
41677;SDS011;27364;49.026;8.712;2022-10-29T23:28:36;15.68;;;10.00;;
41677;SDS011;27364;49.026;8.712;2022-10-29T23:31:09;23.42;;;10.27;;
41677;SDS011;27364;49.026;8.712;2022-10-29T23:33:43;23.38;;;10.50;;
41677;SDS011;27364;49.026;8.712;2022-10-29T23:36:10;19.70;;;9.38;;
41677;SDS011;27364;49.026;8.712;2022-10-29T23:38:36;22.85;;;9.85;;
41677;SDS011;27364;49.026;8.712;2022-10-29T23:41:02;19.88;;;10.00;;
41677;SDS011;27364;49.026;8.712;2022-10-29T23:43:28;23.23;;;9.55;;
41677;SDS011;27364;49.026;8.712;2022-10-29T23:45:56;18.77;;;9.98;;
41677;SDS011;27364;49.026;8.712;2022-10-29T23:48:21;22.05;;;9.82;;
41677;SDS011;27364;49.026;8.712;2022-10-29T23:50:48;18.38;;;9.75;;
41677;SDS011;27364;49.026;8.712;2022-10-29T23:53:15;18.20;;;10.27;;
41677;SDS011;27364;49.026;8.712;2022-10-29T23:55:41;16.50;;;9.43;;
41677;SDS011;27364;49.026;8.712;2022-10-29T23:58:07;26.13;;;9.48;;
